createdAt,value
2019-03-23T00:01:23.769Z,7.20
2019-03-23T00:03:53.610Z,7.10
2019-03-23T00:06:30.864Z,7.10
2019-03-23T00:08:55.322Z,7.10
2019-03-23T00:11:25.357Z,7.00
2019-03-23T00:13:55.180Z,7.00
2019-03-23T00:16:25.179Z,7.00
2019-03-23T00:18:55.114Z,6.90
2019-03-23T00:21:25.073Z,6.90
2019-03-23T00:23:55.004Z,6.90
2019-03-23T00:26:24.961Z,6.90
2019-03-23T00:28:54.966Z,6.80
2019-03-23T00:31:25.013Z,6.80
2019-03-23T00:33:54.929Z,6.80
2019-03-23T00:36:27.148Z,6.70
2019-03-23T00:38:57.261Z,6.70
2019-03-23T00:41:27.061Z,6.70
2019-03-23T00:43:56.992Z,6.70
2019-03-23T00:46:26.860Z,6.60
2019-03-23T00:48:56.818Z,6.60
2019-03-23T00:51:26.707Z,6.60
2019-03-23T00:53:56.623Z,6.60
2019-03-23T00:56:26.504Z,6.60
2019-03-23T00:58:56.399Z,6.60
2019-03-23T01:01:26.578Z,6.60
2019-03-23T01:03:56.607Z,6.60
2019-03-23T01:06:26.485Z,6.60
2019-03-23T01:08:56.597Z,6.60
2019-03-23T01:11:26.871Z,6.50
2019-03-23T01:13:56.842Z,6.50
2019-03-23T01:16:26.815Z,6.50
2019-03-23T01:18:56.748Z,6.50
2019-03-23T01:21:26.740Z,6.50
2019-03-23T01:23:57.044Z,6.50
2019-03-23T01:26:28.644Z,6.50
2019-03-23T01:28:58.554Z,6.50
2019-03-23T01:31:28.638Z,6.50
2019-03-23T01:33:58.652Z,6.40
2019-03-23T01:36:28.616Z,6.40
2019-03-23T01:38:58.502Z,6.40
2019-03-23T01:41:28.512Z,6.40
2019-03-23T01:43:58.461Z,6.40
2019-03-23T01:46:28.384Z,6.40
2019-03-23T01:48:58.342Z,6.30
2019-03-23T01:51:28.271Z,6.30
2019-03-23T01:53:58.184Z,6.20
2019-03-23T01:56:28.051Z,6.20
2019-03-23T01:58:57.983Z,6.20
2019-03-23T02:01:29.089Z,6.20
2019-03-23T02:03:59.057Z,6.20
2019-03-23T02:06:28.919Z,6.20
2019-03-23T02:08:58.884Z,6.10
2019-03-23T02:11:28.726Z,6.10
2019-03-23T02:13:58.822Z,6.10
2019-03-23T02:16:28.747Z,6.10
2019-03-23T02:18:58.672Z,6.10
2019-03-23T02:21:28.591Z,6.10
2019-03-23T02:23:58.437Z,6.10
2019-03-23T02:26:28.338Z,6.10
2019-03-23T02:28:58.229Z,6.00
2019-03-23T02:31:28.231Z,6.00
2019-03-23T02:33:58.127Z,6.00
2019-03-23T02:36:27.921Z,6.00
2019-03-23T02:38:57.808Z,5.90
2019-03-23T02:41:27.841Z,5.90
2019-03-23T02:43:57.767Z,5.90
2019-03-23T02:46:27.726Z,5.90
2019-03-23T02:48:57.677Z,5.90
2019-03-23T02:51:27.579Z,5.90
2019-03-23T02:53:57.537Z,5.90
2019-03-23T02:56:27.401Z,5.90
2019-03-23T02:58:57.323Z,5.90
2019-03-23T03:01:27.193Z,5.90
2019-03-23T03:03:57.099Z,5.90
2019-03-23T03:06:27.029Z,5.80
2019-03-23T03:08:56.936Z,5.80
2019-03-23T03:11:26.822Z,5.80
2019-03-23T03:13:56.728Z,5.70
2019-03-23T03:16:26.763Z,5.70
2019-03-23T03:18:56.733Z,5.70
2019-03-23T03:21:26.668Z,5.70
2019-03-23T03:23:56.524Z,5.70
2019-03-23T03:26:26.621Z,5.70
2019-03-23T03:28:56.502Z,5.70
2019-03-23T03:31:26.421Z,5.70
2019-03-23T03:33:56.526Z,5.70
2019-03-23T03:36:29.779Z,5.70
2019-03-23T03:38:58.589Z,5.60
2019-03-23T03:41:28.737Z,5.70
2019-03-23T03:43:58.952Z,5.60
2019-03-23T03:46:28.906Z,5.60
2019-03-23T03:49:11.801Z,5.50
2019-03-23T03:51:30.371Z,5.50
2019-03-23T03:54:00.362Z,5.50
2019-03-23T03:56:30.529Z,5.50
2019-03-23T03:59:00.443Z,5.50
2019-03-23T04:01:30.366Z,5.50
2019-03-23T04:04:00.301Z,5.50
2019-03-23T04:06:30.237Z,5.40
2019-03-23T04:09:00.532Z,5.40
2019-03-23T04:11:30.690Z,5.40
2019-03-23T04:14:00.865Z,5.40
2019-03-23T04:16:30.694Z,5.40
2019-03-23T04:19:00.550Z,5.30
2019-03-23T04:21:30.504Z,5.20
2019-03-23T04:24:00.409Z,5.20
2019-03-23T04:26:30.311Z,5.10
2019-03-23T04:29:00.175Z,5.10
2019-03-23T04:31:30.162Z,5.00
2019-03-23T04:34:00.188Z,5.00
2019-03-23T04:36:30.304Z,5.00
2019-03-23T04:39:00.176Z,4.90
2019-03-23T04:41:30.088Z,4.90
2019-03-23T04:44:00.007Z,4.90
2019-03-23T04:46:29.840Z,4.80
2019-03-23T04:48:59.771Z,4.80
2019-03-23T04:51:29.683Z,4.80
2019-03-23T04:53:59.661Z,4.80
2019-03-23T04:56:29.541Z,4.80
2019-03-23T04:58:59.426Z,4.80
2019-03-23T05:01:29.476Z,4.80
2019-03-23T05:03:59.350Z,4.90
2019-03-23T05:06:29.277Z,4.90
2019-03-23T05:08:59.582Z,4.90
2019-03-23T05:11:29.532Z,4.90
2019-03-23T05:13:59.610Z,4.90
2019-03-23T05:16:29.561Z,4.90
2019-03-23T05:18:59.467Z,4.90
2019-03-23T05:21:29.324Z,4.90
2019-03-23T05:23:59.285Z,4.90
2019-03-23T05:26:29.307Z,4.90
2019-03-23T05:28:59.239Z,4.90
2019-03-23T05:31:29.241Z,4.90
2019-03-23T05:33:59.179Z,4.90
2019-03-23T05:36:29.149Z,4.90
2019-03-23T05:38:59.002Z,4.90
2019-03-23T05:41:30.874Z,4.90
2019-03-23T05:44:01.502Z,4.90
2019-03-23T05:46:31.337Z,4.90
2019-03-23T05:49:01.339Z,4.90
2019-03-23T05:51:31.231Z,4.90
2019-03-23T05:54:01.128Z,4.90
2019-03-23T05:56:31.043Z,4.90
2019-03-23T05:59:00.837Z,4.90
2019-03-23T06:01:30.854Z,4.90
2019-03-23T06:04:01.012Z,4.90
2019-03-23T06:06:31.073Z,4.80
2019-03-23T06:09:00.992Z,4.80
2019-03-23T06:11:30.938Z,4.80
2019-03-23T06:14:00.855Z,4.80
2019-03-23T06:16:30.815Z,4.90
2019-03-23T06:19:00.711Z,4.90
2019-03-23T06:21:30.831Z,4.90
2019-03-23T06:24:00.790Z,4.90
2019-03-23T06:26:30.765Z,4.90
2019-03-23T06:29:00.652Z,4.90
2019-03-23T06:31:30.561Z,5.00
2019-03-23T06:34:00.535Z,5.00
2019-03-23T06:36:30.480Z,5.10
2019-03-23T06:39:05.487Z,5.10
2019-03-23T06:41:31.916Z,5.10
2019-03-23T06:44:01.893Z,5.10
2019-03-23T06:46:31.826Z,5.10
2019-03-23T06:49:01.615Z,5.10
2019-03-23T06:51:31.546Z,5.10
2019-03-23T06:54:01.539Z,5.10
2019-03-23T06:56:31.436Z,5.20
2019-03-23T06:59:01.434Z,5.20
2019-03-23T07:01:31.375Z,5.30
2019-03-23T07:04:01.380Z,5.30
2019-03-23T07:06:31.225Z,5.30
2019-03-23T07:09:01.026Z,5.30
2019-03-23T07:11:31.166Z,5.40
2019-03-23T07:14:01.110Z,5.40
2019-03-23T07:16:30.910Z,5.40
2019-03-23T07:19:00.892Z,5.40
2019-03-23T07:21:30.807Z,5.50
2019-03-23T07:24:00.985Z,5.60
2019-03-23T07:26:30.872Z,5.60
2019-03-23T07:29:00.968Z,5.70
2019-03-23T07:31:30.878Z,5.70
2019-03-23T07:34:00.923Z,5.80
2019-03-23T07:36:30.880Z,5.90
2019-03-23T07:39:00.777Z,5.90
2019-03-23T07:41:30.659Z,5.90
2019-03-23T07:44:00.518Z,5.90
2019-03-23T07:46:30.509Z,6.00
2019-03-23T07:49:00.371Z,5.90
2019-03-23T07:51:30.498Z,6.10
2019-03-23T07:54:02.641Z,6.10
2019-03-23T07:56:32.026Z,6.20
2019-03-23T07:59:01.841Z,6.30
2019-03-23T08:01:31.735Z,6.40
2019-03-23T08:04:01.690Z,6.40
2019-03-23T08:06:31.642Z,6.40
2019-03-23T08:09:01.576Z,6.50
2019-03-23T08:11:31.517Z,6.60
2019-03-23T08:14:01.383Z,6.60
2019-03-23T08:16:31.399Z,6.60
2019-03-23T08:19:01.458Z,6.60
2019-03-23T08:21:31.547Z,6.70
2019-03-23T08:24:07.915Z,6.70
2019-03-23T08:26:37.891Z,6.80
2019-03-23T08:29:08.347Z,6.90
2019-03-23T08:31:38.383Z,7.10
2019-03-23T08:34:08.316Z,7.30
2019-03-23T08:36:38.158Z,7.30
2019-03-23T08:39:08.796Z,7.40
2019-03-23T08:41:39.949Z,7.60
2019-03-23T08:44:10.196Z,7.70
2019-03-23T08:46:40.131Z,7.80
2019-03-23T08:49:09.975Z,7.90
2019-03-23T08:51:39.911Z,8.30
2019-03-23T08:54:09.770Z,8.40
2019-03-23T08:56:39.710Z,8.50
2019-03-23T08:59:10.119Z,8.80
2019-03-23T09:01:39.931Z,9.20
2019-03-23T09:04:09.796Z,9.40
2019-03-23T09:06:39.856Z,9.60
2019-03-23T09:09:09.780Z,9.70
2019-03-23T09:11:39.751Z,10.20
2019-03-23T09:14:09.622Z,10.80
2019-03-23T09:16:51.561Z,11.30
2019-03-23T09:19:21.417Z,11.90
2019-03-23T09:21:51.255Z,12.40
2019-03-23T09:24:21.102Z,12.80
2019-03-23T09:26:51.122Z,13.20
2019-03-23T09:29:21.057Z,13.40
2019-03-23T09:31:51.199Z,13.70
2019-03-23T09:34:21.180Z,14.00
2019-03-23T09:36:51.102Z,14.40
2019-03-23T09:39:21.069Z,14.40
2019-03-23T09:41:50.854Z,14.70
2019-03-23T09:44:21.026Z,15.00
2019-03-23T09:46:50.937Z,15.10
2019-03-23T09:49:22.143Z,15.30
2019-03-23T09:51:52.080Z,15.50
2019-03-23T09:54:22.202Z,15.70
2019-03-23T09:56:52.091Z,15.50
2019-03-23T09:59:21.947Z,15.30
2019-03-23T10:01:51.754Z,15.60
2019-03-23T10:04:21.755Z,15.90
2019-03-23T10:06:51.667Z,16.10
2019-03-23T10:09:21.594Z,16.40
2019-03-23T10:11:51.513Z,16.20
2019-03-23T10:14:21.457Z,16.30
2019-03-23T10:16:51.390Z,16.30
2019-03-23T10:19:23.246Z,16.40
2019-03-23T10:21:53.246Z,16.30
2019-03-23T10:24:23.104Z,16.40
2019-03-23T10:26:58.043Z,16.40
2019-03-23T10:29:27.998Z,16.30
2019-03-23T10:31:57.951Z,16.30
2019-03-23T10:34:27.974Z,16.60
2019-03-23T10:36:57.918Z,16.70
2019-03-23T10:39:27.849Z,16.50
2019-03-23T10:41:57.730Z,16.50
2019-03-23T10:44:27.602Z,16.90
2019-03-23T10:46:57.516Z,17.30
2019-03-23T10:49:27.483Z,17.00
2019-03-23T10:51:57.402Z,17.20
2019-03-23T10:54:27.330Z,17.20
2019-03-23T10:56:57.401Z,17.20
2019-03-23T10:59:28.082Z,17.40
2019-03-23T11:01:58.244Z,17.30
2019-03-23T11:04:28.100Z,17.20
2019-03-23T11:06:58.073Z,17.50
2019-03-23T11:09:27.946Z,17.40
2019-03-23T11:11:57.943Z,17.20
2019-03-23T11:14:27.861Z,17.50
2019-03-23T11:16:57.905Z,17.70
2019-03-23T11:19:27.866Z,18.00
2019-03-23T11:21:57.850Z,18.30
2019-03-23T11:24:27.639Z,18.40
2019-03-23T11:26:57.530Z,18.50
2019-03-23T11:29:27.616Z,18.50
2019-03-23T11:31:57.713Z,18.80
2019-03-23T11:34:27.768Z,18.90
2019-03-23T11:36:57.634Z,19.00
2019-03-23T11:39:27.651Z,19.10
2019-03-23T11:41:57.716Z,18.90
2019-03-23T11:44:27.619Z,19.10
2019-03-23T11:46:57.631Z,19.30
2019-03-23T11:49:27.645Z,19.40
2019-03-23T11:51:57.638Z,19.10
2019-03-23T11:54:27.638Z,19.40
2019-03-23T11:56:57.604Z,19.60
2019-03-23T11:59:27.787Z,19.80
2019-03-23T12:01:57.811Z,19.90
2019-03-23T12:04:27.868Z,20.10
2019-03-23T12:06:57.904Z,20.10
2019-03-23T12:09:27.754Z,20.10
2019-03-23T12:11:57.703Z,20.20
2019-03-23T12:14:27.567Z,20.30
2019-03-23T12:16:57.755Z,20.50
2019-03-23T12:19:27.884Z,20.60
2019-03-23T12:21:57.839Z,20.60
2019-03-23T12:24:27.823Z,20.70
2019-03-23T12:26:57.693Z,20.80
2019-03-23T12:29:27.599Z,20.80
2019-03-23T12:31:57.559Z,20.70
2019-03-23T12:34:27.539Z,20.60
2019-03-23T12:36:57.473Z,20.80
2019-03-23T12:39:27.434Z,20.80
2019-03-23T12:41:57.369Z,20.90
2019-03-23T12:44:27.284Z,20.90
2019-03-23T12:46:57.132Z,20.80
2019-03-23T12:49:27.196Z,20.80
2019-03-23T12:51:57.211Z,20.80
2019-03-23T12:54:27.510Z,20.80
2019-03-23T12:56:57.533Z,20.80
2019-03-23T12:59:27.364Z,20.70
2019-03-23T13:01:57.383Z,20.80
2019-03-23T13:04:27.494Z,20.70
2019-03-23T13:06:57.413Z,20.80
2019-03-23T13:09:27.303Z,20.70
2019-03-23T13:11:57.286Z,20.50
2019-03-23T13:14:27.224Z,20.50
2019-03-23T13:16:57.084Z,20.30
2019-03-23T13:19:27.011Z,20.40
2019-03-23T13:21:56.952Z,20.40
2019-03-23T13:24:27.047Z,20.50
2019-03-23T13:26:57.019Z,20.50
2019-03-23T13:29:26.870Z,20.50
2019-03-23T13:31:57.164Z,20.40
2019-03-23T13:34:27.122Z,20.40
2019-03-23T13:36:57.272Z,20.30
2019-03-23T13:39:27.168Z,20.10
2019-03-23T13:41:57.127Z,20.20
2019-03-23T13:44:27.164Z,20.00
2019-03-23T13:46:57.751Z,20.00
2019-03-23T13:49:28.180Z,20.10
2019-03-23T13:51:58.307Z,20.00
2019-03-23T13:54:28.218Z,19.90
2019-03-23T13:56:58.285Z,19.80
2019-03-23T13:59:28.212Z,19.70
2019-03-23T14:01:58.196Z,19.50
2019-03-23T14:04:28.138Z,19.40
2019-03-23T14:06:58.266Z,19.40
2019-03-23T14:09:28.178Z,19.30
2019-03-23T14:11:58.231Z,19.20
2019-03-23T14:14:28.112Z,19.10
2019-03-23T14:16:58.054Z,19.10
2019-03-23T14:19:28.087Z,19.00
2019-03-23T14:21:58.183Z,18.90
2019-03-23T14:24:28.211Z,18.90
2019-03-23T14:26:58.189Z,18.90
2019-03-23T14:29:28.340Z,18.80
2019-03-23T14:31:58.434Z,18.80
2019-03-23T14:34:28.494Z,18.70
2019-03-23T14:36:58.559Z,18.70
2019-03-23T14:39:28.621Z,18.70
2019-03-23T14:42:04.886Z,18.70
2019-03-23T14:44:30.300Z,18.70
2019-03-23T14:47:00.228Z,18.60
2019-03-23T14:49:30.213Z,18.60
2019-03-23T14:52:00.303Z,18.60
2019-03-23T14:54:30.296Z,18.60
2019-03-23T14:57:00.394Z,18.50
2019-03-23T14:59:30.276Z,18.50
2019-03-23T15:02:00.413Z,18.50
2019-03-23T15:04:31.163Z,18.50
2019-03-23T15:07:01.069Z,18.40
2019-03-23T15:09:30.927Z,18.40
2019-03-23T15:12:00.837Z,18.40
2019-03-23T15:14:31.008Z,18.30
2019-03-23T15:17:01.377Z,18.20
2019-03-23T15:19:31.638Z,18.20
2019-03-23T15:22:01.587Z,18.10
2019-03-23T15:24:31.508Z,18.10
2019-03-23T15:27:01.397Z,18.10
2019-03-23T15:29:31.389Z,18.10
2019-03-23T15:32:01.314Z,18.00
2019-03-23T15:34:31.434Z,18.00
2019-03-23T15:37:01.463Z,18.00
2019-03-23T15:39:31.375Z,17.90
2019-03-23T15:42:01.443Z,17.90
2019-03-23T15:44:31.385Z,17.90
2019-03-23T15:47:01.396Z,17.90
2019-03-23T15:49:31.266Z,17.80
2019-03-23T15:52:01.439Z,17.70
2019-03-23T15:54:31.466Z,17.60
2019-03-23T15:57:01.423Z,17.60
2019-03-23T15:59:31.234Z,17.60
2019-03-23T16:02:01.196Z,17.60
2019-03-23T16:04:31.092Z,17.60
2019-03-23T16:07:00.992Z,17.60
2019-03-23T16:09:30.914Z,17.60
2019-03-23T16:12:00.861Z,17.50
2019-03-23T16:14:30.798Z,17.40
2019-03-23T16:17:00.668Z,17.40
2019-03-23T16:19:30.625Z,17.40
2019-03-23T16:22:00.555Z,17.30
2019-03-23T16:24:30.417Z,17.30
2019-03-23T16:27:00.361Z,17.20
2019-03-23T16:29:30.311Z,17.20
2019-03-23T16:32:00.262Z,17.10
2019-03-23T16:34:30.465Z,17.00
2019-03-23T16:37:00.423Z,16.90
2019-03-23T16:39:30.397Z,16.90
2019-03-23T16:42:00.304Z,16.80
2019-03-23T16:44:30.114Z,16.80
2019-03-23T16:47:00.171Z,16.70
2019-03-23T16:49:30.088Z,16.60
2019-03-23T16:52:00.013Z,16.50
2019-03-23T16:54:29.859Z,16.50
2019-03-23T16:56:59.776Z,16.40
2019-03-23T16:59:29.724Z,16.40
2019-03-23T17:01:59.632Z,16.30
2019-03-23T17:04:29.856Z,16.30
2019-03-23T17:06:59.642Z,16.10
2019-03-23T17:09:32.789Z,16.10
2019-03-23T17:12:04.948Z,16.00
2019-03-23T17:14:36.701Z,15.90
2019-03-23T17:17:06.616Z,15.90
2019-03-23T17:19:36.733Z,15.80
2019-03-23T17:22:08.669Z,15.70
2019-03-23T17:24:41.199Z,15.60
2019-03-23T17:27:41.118Z,15.50
2019-03-23T17:30:13.779Z,15.40
2019-03-23T17:32:49.912Z,15.30
2019-03-23T17:35:19.745Z,15.20
2019-03-23T17:42:19.703Z,15.10
2019-03-23T17:44:49.549Z,15.00
2019-03-23T17:47:57.381Z,14.90
2019-03-23T17:50:28.706Z,14.80
2019-03-23T17:52:58.982Z,14.80
2019-03-23T17:55:28.998Z,14.70
2019-03-23T17:57:58.982Z,14.70
2019-03-23T18:01:40.054Z,14.50
2019-03-23T18:04:09.940Z,14.50
2019-03-23T18:06:45.450Z,14.40
2019-03-23T18:09:15.326Z,14.30
2019-03-23T18:12:00.318Z,14.30
2019-03-23T18:14:30.239Z,14.20
2019-03-23T18:17:00.120Z,14.10
2019-03-23T18:19:32.305Z,14.10
2019-03-23T18:22:02.222Z,14.00
2019-03-23T18:24:32.171Z,14.00
2019-03-23T18:27:19.230Z,13.90
2019-03-23T18:29:49.424Z,13.90
2019-03-23T18:32:19.745Z,13.90
2019-03-23T18:34:49.522Z,13.80
2019-03-23T18:37:55.637Z,13.80
2019-03-23T18:40:25.618Z,13.80
2019-03-23T18:42:55.596Z,13.70
2019-03-23T18:45:25.612Z,13.60
2019-03-23T18:47:55.564Z,13.60
2019-03-23T18:50:29.103Z,13.50
2019-03-23T18:52:59.027Z,13.50
2019-03-23T18:55:53.126Z,13.40
2019-03-23T18:58:23.038Z,13.30
2019-03-23T19:00:52.994Z,13.30
2019-03-23T19:03:22.840Z,13.20
2019-03-23T19:05:53.422Z,13.20
2019-03-23T19:08:23.337Z,13.10
2019-03-23T19:10:53.385Z,13.00
2019-03-23T19:13:24.926Z,13.00
2019-03-23T19:19:29.088Z,12.90
2019-03-23T19:21:58.943Z,12.80
2019-03-23T19:24:30.607Z,12.80
2019-03-23T19:30:18.264Z,12.70
2019-03-23T19:32:49.485Z,12.60
2019-03-23T19:36:15.251Z,12.50
2019-03-23T19:38:45.108Z,12.40
2019-03-23T19:41:23.585Z,12.30
2019-03-23T19:43:54.653Z,12.30
2019-03-23T19:46:39.818Z,12.20
2019-03-23T19:49:09.728Z,12.20
2019-03-23T19:51:44.461Z,12.10
2019-03-23T19:54:15.092Z,12.10
2019-03-23T20:00:19.901Z,11.90
2019-03-23T20:02:49.892Z,11.90
2019-03-23T20:05:19.816Z,11.80
2019-03-23T20:07:50.070Z,11.80
2019-03-23T20:10:20.264Z,11.80
2019-03-23T20:12:50.207Z,11.70
2019-03-23T20:15:20.278Z,11.60
2019-03-23T20:35:10.338Z,11.30
2019-03-23T20:37:40.609Z,11.30
2019-03-23T20:40:13.132Z,11.30
2019-03-23T20:42:43.898Z,11.20
2019-03-23T20:45:17.842Z,11.10
2019-03-23T20:47:47.791Z,11.10
2019-03-23T20:50:17.490Z,11.10
2019-03-23T20:52:47.768Z,11.00
2019-03-23T20:55:27.978Z,11.00
2019-03-23T20:57:57.841Z,10.90
2019-03-23T21:00:27.762Z,10.90
2019-03-23T21:02:57.581Z,10.90
2019-03-23T21:05:33.951Z,10.80
2019-03-23T21:07:58.988Z,10.80
2019-03-23T21:10:28.882Z,10.80
2019-03-23T21:12:58.682Z,10.70
2019-03-23T21:15:28.708Z,10.70
2019-03-23T21:17:58.555Z,10.60
2019-03-23T21:20:28.287Z,10.60
2019-03-23T21:22:58.152Z,10.60
2019-03-23T21:25:27.959Z,10.50
2019-03-23T21:27:57.671Z,10.50
2019-03-23T21:30:27.610Z,10.50
2019-03-23T21:32:57.385Z,10.40
2019-03-23T21:35:27.206Z,10.40
2019-03-23T21:37:57.097Z,10.30
2019-03-23T21:40:26.913Z,10.30
2019-03-23T21:42:56.782Z,10.30
2019-03-23T21:45:26.586Z,10.20
2019-03-23T21:47:58.179Z,10.20
2019-03-23T21:50:28.002Z,10.10
2019-03-23T21:52:58.004Z,10.10
2019-03-23T21:55:28.131Z,10.10
2019-03-23T21:57:58.086Z,10.00
2019-03-23T22:00:32.667Z,10.00
2019-03-23T22:03:02.610Z,9.90
2019-03-23T22:05:32.470Z,9.90
2019-03-23T22:08:02.213Z,9.90
2019-03-23T22:10:32.079Z,9.80
2019-03-23T22:13:02.363Z,9.70
2019-03-23T22:15:33.654Z,9.70
2019-03-23T22:18:03.735Z,9.70
2019-03-23T22:20:33.602Z,9.70
2019-03-23T22:23:03.400Z,9.60
2019-03-23T22:25:33.200Z,9.60
2019-03-23T22:28:03.042Z,9.50
2019-03-23T22:30:33.091Z,9.50
2019-03-23T22:33:03.965Z,9.50
2019-03-23T22:35:34.553Z,9.50
2019-03-23T22:38:04.427Z,9.40
2019-03-23T22:40:34.267Z,9.40
2019-03-23T22:43:04.100Z,9.30
2019-03-23T22:45:35.708Z,9.30
2019-03-23T22:48:05.390Z,9.30
2019-03-23T22:50:35.203Z,9.20
2019-03-23T22:53:05.295Z,9.20
2019-03-23T22:55:35.038Z,9.10
2019-03-23T22:58:04.853Z,9.10
2019-03-23T23:00:48.106Z,9.10
2019-03-23T23:03:20.778Z,9.00
2019-03-23T23:05:50.570Z,9.00
2019-03-23T23:08:20.382Z,9.00
2019-03-23T23:10:50.269Z,9.00
2019-03-23T23:13:20.051Z,8.90
2019-03-23T23:15:50.238Z,8.90
2019-03-23T23:18:20.163Z,8.90
2019-03-23T23:20:50.259Z,8.70
2019-03-23T23:23:20.098Z,8.70
2019-03-23T23:25:50.004Z,8.70
2019-03-23T23:28:19.709Z,8.70
2019-03-23T23:30:49.686Z,8.70
2019-03-23T23:33:19.833Z,8.60
2019-03-23T23:35:49.624Z,8.60
2019-03-23T23:38:19.476Z,8.70
2019-03-23T23:40:49.234Z,8.60
2019-03-23T23:43:19.088Z,8.60
2019-03-23T23:45:48.939Z,8.50
2019-03-23T23:48:18.747Z,8.50
2019-03-23T23:50:48.555Z,8.50
2019-03-23T23:53:18.349Z,8.50
2019-03-23T23:55:48.155Z,8.40
2019-03-23T23:58:17.905Z,8.50
